createdAt,value
2018-02-19T00:30:28.497Z,10.68
2018-02-19T00:31:33.704Z,14.95
2018-02-19T00:32:38.174Z,14.05
2018-02-19T00:33:42.642Z,14.77
2018-02-19T00:34:47.858Z,14.23
2018-02-19T00:35:53.106Z,14.65
2018-02-19T00:36:57.568Z,14.98
2018-02-19T00:38:02.033Z,14.60
2018-02-19T00:39:06.477Z,16.58
2018-02-19T00:40:10.912Z,15.60
2018-02-19T00:41:15.393Z,14.85
2018-02-19T00:42:19.836Z,15.52
2018-02-19T00:43:24.287Z,16.05
2018-02-19T00:44:29.494Z,14.48
2018-02-19T00:45:34.710Z,14.80
2018-02-19T00:46:39.180Z,13.93
2018-02-19T00:47:43.626Z,15.48
2018-02-19T00:48:48.073Z,14.55
2018-02-19T00:49:52.540Z,14.45
2018-02-19T00:50:56.990Z,14.05
2018-02-19T00:52:02.229Z,14.68
2018-02-19T00:53:06.684Z,14.50
2018-02-19T00:54:11.131Z,15.20
2018-02-19T00:55:16.483Z,13.65
2018-02-19T00:56:21.680Z,14.68
2018-02-19T00:57:26.158Z,14.40
2018-02-19T00:58:30.608Z,14.93
2018-02-19T00:59:35.838Z,14.60
2018-02-19T01:00:41.054Z,15.15
2018-02-19T01:01:45.502Z,15.18
2018-02-19T01:02:49.986Z,15.50
2018-02-19T01:03:55.934Z,16.37
2018-02-19T01:05:01.163Z,13.70
2018-02-19T01:06:05.611Z,14.40
2018-02-19T01:07:10.066Z,14.45
2018-02-19T01:08:14.541Z,14.98
2018-02-19T01:09:19.019Z,15.13
2018-02-19T01:10:24.224Z,14.68
2018-02-19T01:11:28.674Z,14.73
2018-02-19T01:12:33.117Z,14.05
2018-02-19T01:13:37.647Z,13.70
2018-02-19T01:14:42.077Z,15.00
2018-02-19T01:15:47.284Z,13.82
2018-02-19T01:16:51.742Z,13.98
2018-02-19T01:17:56.955Z,15.35
2018-02-19T01:19:02.190Z,13.75
2018-02-19T01:20:07.404Z,14.98
2018-02-19T01:21:12.629Z,13.93
2018-02-19T01:22:17.079Z,14.85
2018-02-19T01:23:21.526Z,15.13
2018-02-19T01:24:25.992Z,15.18
2018-02-19T01:25:30.433Z,14.40
2018-02-19T01:26:34.889Z,15.75
2018-02-19T01:27:39.338Z,14.98
2018-02-19T01:28:43.785Z,15.13
2018-02-19T01:29:48.277Z,15.75
2018-02-19T01:30:52.717Z,15.73
2018-02-19T01:31:57.163Z,15.02
2018-02-19T01:33:02.374Z,15.25
2018-02-19T01:34:07.602Z,14.50
2018-02-19T01:35:12.058Z,15.00
2018-02-19T01:36:16.522Z,15.10
2018-02-19T01:37:22.475Z,15.27
2018-02-19T01:38:26.922Z,16.15
2018-02-19T01:39:31.370Z,15.55
2018-02-19T01:40:35.846Z,14.55
2018-02-19T01:41:40.287Z,14.15
2018-02-19T01:42:44.742Z,14.98
2018-02-19T01:43:50.032Z,16.45
2018-02-19T01:44:54.482Z,14.80
2018-02-19T01:45:58.937Z,15.05
2018-02-19T01:47:03.405Z,15.75
2018-02-19T01:48:08.634Z,15.13
2018-02-19T01:49:13.838Z,14.80
2018-02-19T01:50:19.797Z,15.30
2018-02-19T01:51:25.043Z,14.65
2018-02-19T01:52:29.493Z,14.75
2018-02-19T01:53:33.951Z,14.70
2018-02-19T01:54:39.161Z,14.25
2018-02-19T01:55:44.395Z,14.90
2018-02-19T01:56:48.870Z,13.60
2018-02-19T01:57:53.322Z,15.38
2018-02-19T01:58:58.534Z,14.15
2018-02-19T02:00:02.989Z,16.00
2018-02-19T02:01:07.434Z,14.63
2018-02-19T02:02:11.919Z,15.48
2018-02-19T02:03:16.365Z,14.57
2018-02-19T02:04:20.802Z,15.55
2018-02-19T02:05:25.254Z,14.70
2018-02-19T02:06:29.807Z,15.65
2018-02-19T02:07:34.261Z,14.30
2018-02-19T02:08:38.713Z,15.48
2018-02-19T02:09:43.178Z,13.98
2018-02-19T02:10:48.390Z,13.80
2018-02-19T02:11:52.838Z,14.23
2018-02-19T02:12:57.314Z,15.02
2018-02-19T02:14:01.758Z,15.13
2018-02-19T02:15:06.215Z,13.88
2018-02-19T02:16:10.637Z,15.05
2018-02-19T02:17:15.090Z,14.70
2018-02-19T02:18:19.568Z,14.15
2018-02-19T02:19:24.810Z,14.05
2018-02-19T02:20:29.379Z,14.73
2018-02-19T02:21:33.826Z,14.82
2018-02-19T02:22:39.116Z,14.13
2018-02-19T02:23:43.571Z,16.15
2018-02-19T02:24:48.801Z,15.00
2018-02-19T02:25:54.010Z,14.87
2018-02-19T02:26:58.462Z,13.13
2018-02-19T02:28:02.914Z,14.45
2018-02-19T02:29:07.433Z,13.73
2018-02-19T02:30:12.042Z,13.95
2018-02-19T02:31:16.496Z,15.27
2018-02-19T02:32:21.718Z,15.30
2018-02-19T02:33:26.938Z,14.65
2018-02-19T02:34:31.420Z,14.23
2018-02-19T02:35:35.859Z,14.00
2018-02-19T02:36:40.306Z,14.82
2018-02-19T02:37:44.760Z,14.63
2018-02-19T02:38:49.217Z,13.07
2018-02-19T02:39:53.718Z,14.02
2018-02-19T02:40:58.934Z,13.95
2018-02-19T02:42:04.152Z,14.25
2018-02-19T02:43:08.916Z,13.27
2018-02-19T02:44:13.354Z,12.60
2018-02-19T02:45:17.869Z,13.32
2018-02-19T02:46:22.314Z,13.20
2018-02-19T02:47:26.774Z,12.37
2018-02-19T02:48:32.109Z,12.68
2018-02-19T02:49:36.567Z,13.98
2018-02-19T02:50:41.033Z,12.68
2018-02-19T02:51:45.493Z,13.18
2018-02-19T02:52:50.704Z,12.18
2018-02-19T02:53:55.149Z,13.10
2018-02-19T02:54:59.602Z,12.77
2018-02-19T02:56:04.081Z,13.05
2018-02-19T02:57:08.524Z,12.35
2018-02-19T02:58:12.969Z,12.73
2018-02-19T02:59:18.192Z,13.62
2018-02-19T03:00:22.641Z,13.07
2018-02-19T03:01:27.119Z,13.70
2018-02-19T03:02:31.562Z,12.07
2018-02-19T03:03:36.019Z,13.18
2018-02-19T03:04:40.470Z,14.65
2018-02-19T03:05:45.686Z,13.82
2018-02-19T03:06:50.930Z,13.35
2018-02-19T03:07:56.137Z,12.70
2018-02-19T03:09:00.633Z,14.30
2018-02-19T03:10:05.066Z,13.98
2018-02-19T03:11:10.362Z,14.13
2018-02-19T03:12:14.833Z,12.68
2018-02-19T03:13:19.283Z,12.57
2018-02-19T03:14:23.729Z,12.98
2018-02-19T03:15:28.954Z,13.27
2018-02-19T03:16:33.393Z,14.95
2018-02-19T03:17:37.865Z,14.05
2018-02-19T03:18:42.331Z,14.00
2018-02-19T03:19:46.765Z,13.18
2018-02-19T03:20:51.212Z,13.10
2018-02-19T03:21:55.654Z,14.27
2018-02-19T03:23:00.131Z,14.23
2018-02-19T03:24:06.123Z,13.38
2018-02-19T03:25:10.557Z,14.05
2018-02-19T03:26:15.010Z,14.52
2018-02-19T03:27:20.223Z,13.93
2018-02-19T03:28:24.701Z,14.02
2018-02-19T03:29:29.153Z,13.32
2018-02-19T03:30:33.604Z,13.57
2018-02-19T03:31:38.048Z,13.07
2018-02-19T03:32:42.494Z,13.40
2018-02-19T03:33:47.737Z,12.85
2018-02-19T03:34:52.198Z,13.52
2018-02-19T03:35:56.648Z,12.43
2018-02-19T03:37:01.869Z,13.85
2018-02-19T03:38:07.077Z,14.63
2018-02-19T03:39:11.549Z,12.88
2018-02-19T03:40:16.002Z,13.20
2018-02-19T03:41:21.954Z,12.48
2018-02-19T03:42:26.409Z,12.45
2018-02-19T03:43:30.862Z,13.07
2018-02-19T03:44:35.332Z,15.77
2018-02-19T03:45:39.782Z,13.35
2018-02-19T03:46:44.234Z,11.85
2018-02-19T03:47:50.024Z,12.63
2018-02-19T03:48:54.862Z,13.13
2018-02-19T03:49:59.329Z,14.40
2018-02-19T03:51:03.777Z,13.60
2018-02-19T03:52:08.230Z,12.82
2018-02-19T03:53:12.692Z,14.18
2018-02-19T03:54:17.143Z,13.62
2018-02-19T03:55:22.392Z,13.88
2018-02-19T03:56:26.838Z,13.10
2018-02-19T03:57:31.288Z,13.05
2018-02-19T03:58:35.743Z,13.50
2018-02-19T03:59:40.202Z,12.77
2018-02-19T04:00:44.673Z,12.75
2018-02-19T04:01:49.121Z,13.62
2018-02-19T04:02:53.618Z,12.35
2018-02-19T04:03:58.058Z,12.43
2018-02-19T04:05:03.295Z,13.60
2018-02-19T04:06:08.740Z,13.13
2018-02-19T04:07:13.954Z,12.10
2018-02-19T04:08:19.047Z,13.52
2018-02-19T04:09:23.486Z,12.65
2018-02-19T04:10:28.760Z,12.57
2018-02-19T04:11:33.097Z,13.25
2018-02-19T04:12:37.541Z,13.62
2018-02-19T04:13:42.781Z,14.32
2018-02-19T04:14:47.995Z,13.30
2018-02-19T04:15:53.218Z,12.98
2018-02-19T04:16:57.699Z,13.48
2018-02-19T04:18:02.146Z,13.52
2018-02-19T04:19:07.361Z,12.23
2018-02-19T04:20:11.809Z,13.30
2018-02-19T04:21:16.258Z,13.40
2018-02-19T04:22:20.729Z,13.30
2018-02-19T04:23:25.177Z,13.25
2018-02-19T04:24:29.626Z,13.18
2018-02-19T04:25:34.850Z,12.70
2018-02-19T04:26:40.619Z,12.77
2018-02-19T04:27:45.118Z,14.35
2018-02-19T04:28:50.339Z,13.23
2018-02-19T04:29:55.558Z,11.93
2018-02-19T04:31:00.015Z,14.05
2018-02-19T04:32:04.469Z,12.90
2018-02-19T04:33:08.938Z,14.80
2018-02-19T04:34:13.377Z,13.88
2018-02-19T04:35:17.834Z,14.07
2018-02-19T04:36:23.059Z,12.75
2018-02-19T04:37:28.279Z,13.38
2018-02-19T04:38:33.194Z,13.50
2018-02-19T04:39:37.653Z,12.93
2018-02-19T04:40:42.179Z,13.48
2018-02-19T04:41:46.627Z,12.60
2018-02-19T04:44:39.983Z,13.13
2018-02-19T04:46:04.762Z,11.95
2018-02-19T04:47:09.029Z,12.95
2018-02-19T04:48:14.252Z,13.07
2018-02-19T04:49:19.466Z,13.70
2018-02-19T04:50:23.938Z,12.70
2018-02-19T04:51:28.836Z,13.00
2018-02-19T04:52:33.273Z,13.50
2018-02-19T04:53:37.731Z,12.25
2018-02-19T04:54:42.972Z,11.93
2018-02-19T04:55:48.522Z,12.50
2018-02-19T04:56:53.730Z,13.10
2018-02-19T04:57:58.938Z,12.10
2018-02-19T04:59:03.385Z,14.50
2018-02-19T05:00:08.188Z,13.60
2018-02-19T05:01:13.690Z,13.20
2018-02-19T05:02:18.424Z,12.70
2018-02-19T05:03:24.968Z,12.90
2018-02-19T05:04:29.896Z,12.80
2018-02-19T05:05:35.142Z,13.23
2018-02-19T05:06:40.859Z,13.60
2018-02-19T05:07:45.304Z,13.48
2018-02-19T05:08:50.518Z,13.10
2018-02-19T05:09:56.467Z,13.18
2018-02-19T05:11:00.926Z,12.15
2018-02-19T05:12:05.403Z,12.75
2018-02-19T05:13:10.613Z,13.80
2018-02-19T05:14:15.062Z,13.32
2018-02-19T05:15:19.512Z,13.43
2018-02-19T05:16:23.970Z,12.80
2018-02-19T05:17:29.258Z,12.37
2018-02-19T05:18:33.703Z,12.02
2018-02-19T05:19:39.266Z,14.35
2018-02-19T05:20:43.706Z,13.90
2018-02-19T05:21:48.149Z,13.35
2018-02-19T05:22:53.451Z,13.13
2018-02-19T05:23:58.192Z,13.93
2018-02-19T05:25:02.634Z,12.25
2018-02-19T05:26:07.082Z,12.35
2018-02-19T05:27:11.521Z,11.88
2018-02-19T05:28:16.001Z,13.02
2018-02-19T05:29:20.460Z,13.05
2018-02-19T05:30:25.664Z,12.45
2018-02-19T05:31:30.121Z,12.20
2018-02-19T05:32:34.598Z,13.00
2018-02-19T05:33:39.065Z,13.10
2018-02-19T05:34:43.517Z,11.40
2018-02-19T05:35:47.974Z,11.68
2018-02-19T05:36:52.448Z,12.80
2018-02-19T05:37:56.897Z,12.45
2018-02-19T05:39:01.369Z,12.70
2018-02-19T05:40:06.592Z,12.60
2018-02-19T05:41:11.055Z,14.48
2018-02-19T05:42:15.541Z,12.52
2018-02-19T05:43:19.989Z,13.60
2018-02-19T05:44:24.467Z,11.50
2018-02-19T05:45:28.926Z,13.00
2018-02-19T05:46:33.374Z,12.75
2018-02-19T05:47:38.623Z,12.57
2018-02-19T05:48:44.021Z,12.70
2018-02-19T05:49:50.005Z,13.13
2018-02-19T05:50:54.450Z,11.70
2018-02-19T05:51:59.338Z,12.32
2018-02-19T05:53:03.784Z,11.10
2018-02-19T05:54:08.233Z,11.85
2018-02-19T05:55:13.493Z,11.63
2018-02-19T05:56:17.956Z,11.40
2018-02-19T05:57:22.403Z,11.88
2018-02-19T05:58:26.854Z,11.60
2018-02-19T05:59:31.301Z,11.32
2018-02-19T06:00:39.238Z,11.00
2018-02-19T06:01:43.867Z,12.00
2018-02-19T06:02:48.334Z,11.75
2018-02-19T06:03:53.633Z,12.70
2018-02-19T06:04:58.068Z,12.68
2018-02-19T06:06:03.313Z,12.10
2018-02-19T06:07:07.757Z,11.30
2018-02-19T06:08:12.213Z,13.57
2018-02-19T06:09:16.746Z,12.93
2018-02-19T06:10:21.189Z,13.25
2018-02-19T06:11:25.674Z,11.55
2018-02-19T06:12:30.136Z,12.63
2018-02-19T06:13:34.789Z,13.25
2018-02-19T06:14:40.006Z,12.95
2018-02-19T06:15:45.237Z,10.93
2018-02-19T06:16:49.697Z,14.00
2018-02-19T06:17:54.154Z,12.07
2018-02-19T06:18:58.599Z,11.93
2018-02-19T06:20:03.065Z,13.93
2018-02-19T06:21:07.502Z,12.55
2018-02-19T06:22:12.752Z,13.20
2018-02-19T06:23:17.219Z,13.45
2018-02-19T06:24:23.202Z,13.45
2018-02-19T06:25:27.649Z,13.23
2018-02-19T06:26:32.102Z,12.80
2018-02-19T06:27:37.341Z,14.10
2018-02-19T06:28:42.550Z,12.80
2018-02-19T06:29:47.014Z,13.07
2018-02-19T06:30:51.480Z,12.95
2018-02-19T06:31:55.930Z,14.30
2018-02-19T06:33:00.406Z,12.60
2018-02-19T06:34:05.624Z,13.20
2018-02-19T06:35:10.838Z,12.90
2018-02-19T06:36:15.454Z,12.45
2018-02-19T06:37:19.971Z,13.40
2018-02-19T06:38:24.445Z,14.48
2018-02-19T06:39:28.905Z,12.77
2018-02-19T06:40:34.120Z,14.23
2018-02-19T06:41:38.557Z,14.40
2018-02-19T06:42:43.761Z,13.25
2018-02-19T06:43:48.233Z,14.23
2018-02-19T06:44:52.774Z,13.90
2018-02-19T06:45:57.218Z,14.85
2018-02-19T06:47:02.440Z,13.32
2018-02-19T06:48:06.885Z,13.40
2018-02-19T06:49:11.354Z,13.30
2018-02-19T06:50:15.804Z,13.70
2018-02-19T06:51:20.248Z,15.13
2018-02-19T06:52:24.699Z,13.80
2018-02-19T06:53:29.912Z,13.70
2018-02-19T06:54:34.381Z,14.82
2018-02-19T06:55:38.825Z,14.07
2018-02-19T06:56:43.284Z,13.90
2018-02-19T06:57:47.726Z,12.40
2018-02-19T06:58:52.173Z,13.05
2018-02-19T06:59:56.642Z,13.57
2018-02-19T07:01:01.119Z,12.98
2018-02-19T07:02:06.336Z,12.20
2018-02-19T07:03:11.570Z,13.40
2018-02-19T07:04:16.787Z,13.93
2018-02-19T07:05:21.835Z,13.10
2018-02-19T07:06:26.286Z,12.48
2018-02-19T07:07:30.726Z,14.07
2018-02-19T07:08:35.197Z,13.05
2018-02-19T07:09:39.642Z,13.18
2018-02-19T07:10:44.139Z,12.27
2018-02-19T07:11:48.584Z,12.40
2018-02-19T07:12:53.792Z,13.50
2018-02-19T07:13:58.242Z,11.50
2018-02-19T07:15:02.732Z,14.50
2018-02-19T07:16:07.369Z,11.82
2018-02-19T07:17:11.824Z,12.85
2018-02-19T07:18:16.290Z,12.60
2018-02-19T07:19:20.738Z,12.35
2018-02-19T07:20:24.873Z,11.75
2018-02-19T07:21:29.349Z,12.60
2018-02-19T07:22:33.801Z,13.00
2018-02-19T07:23:39.018Z,12.70
2018-02-19T07:24:43.466Z,12.52
2018-02-19T07:25:47.911Z,12.00
2018-02-19T07:26:52.379Z,12.98
2018-02-19T07:27:57.590Z,12.05
2018-02-19T07:29:02.826Z,12.73
2018-02-19T07:30:08.034Z,11.85
2018-02-19T07:31:12.481Z,12.13
2018-02-19T07:32:16.957Z,12.75
2018-02-19T07:33:22.911Z,11.32
2018-02-19T07:34:27.362Z,12.52
2018-02-19T07:35:31.824Z,11.12
2018-02-19T07:36:36.262Z,12.02
2018-02-19T07:37:41.502Z,12.40
2018-02-19T07:38:45.954Z,12.02
2018-02-19T07:39:50.400Z,12.23
2018-02-19T07:40:55.654Z,11.85
2018-02-19T07:42:00.278Z,11.82
2018-02-19T07:43:04.761Z,12.52
2018-02-19T07:44:09.967Z,11.32
2018-02-19T07:45:14.414Z,12.85
2018-02-19T07:46:19.644Z,12.37
2018-02-19T07:47:24.856Z,11.63
2018-02-19T07:48:30.099Z,12.15
2018-02-19T07:49:35.357Z,12.68
2018-02-19T07:50:39.613Z,11.70
2018-02-19T07:51:44.053Z,12.20
2018-02-19T07:52:48.520Z,14.52
2018-02-19T07:53:52.982Z,11.65
2018-02-19T07:54:57.426Z,11.93
2018-02-19T07:56:01.874Z,12.75
2018-02-19T07:57:07.085Z,11.10
2018-02-19T07:58:13.048Z,10.85
2018-02-19T07:59:17.513Z,11.07
2018-02-19T08:00:21.965Z,13.13
2018-02-19T08:01:26.414Z,12.37
2018-02-19T08:02:30.881Z,11.98
2018-02-19T08:03:35.135Z,13.32
2018-02-19T08:04:39.603Z,12.27
2018-02-19T08:05:44.062Z,13.25
2018-02-19T08:06:48.513Z,11.68
2018-02-19T08:07:52.970Z,15.23
2018-02-19T08:08:57.414Z,15.55
2018-02-19T08:10:01.894Z,13.18
2018-02-19T08:11:06.365Z,12.68
2018-02-19T08:12:10.827Z,12.45
2018-02-19T08:13:15.283Z,12.10
2018-02-19T08:14:19.788Z,11.25
2018-02-19T08:15:24.301Z,13.55
2018-02-19T08:16:28.813Z,15.50
2018-02-19T08:17:33.326Z,12.50
2018-02-19T08:18:37.775Z,11.93
2018-02-19T08:19:42.981Z,12.02
2018-02-19T08:20:47.457Z,13.18
2018-02-19T08:21:51.910Z,11.73
2018-02-19T08:22:57.219Z,12.32
2018-02-19T08:24:01.662Z,14.52
2018-02-19T08:25:06.877Z,11.63
2018-02-19T08:26:11.350Z,11.30
2018-02-19T08:27:15.804Z,12.13
2018-02-19T08:28:21.109Z,11.98
2018-02-19T08:29:25.550Z,11.50
2018-02-19T08:30:30.009Z,11.32
2018-02-19T08:31:34.509Z,12.10
2018-02-19T08:32:38.970Z,11.77
2018-02-19T08:33:43.416Z,12.48
2018-02-19T08:34:47.872Z,10.60
2018-02-19T08:35:52.334Z,10.63
2018-02-19T08:36:57.570Z,10.90
2018-02-19T08:38:01.826Z,10.52
2018-02-19T08:39:05.947Z,10.55
2018-02-19T08:40:10.389Z,11.48
2018-02-19T08:41:14.840Z,10.60
2018-02-19T08:42:19.313Z,12.35
2018-02-19T08:43:23.753Z,11.90
2018-02-19T08:44:28.202Z,12.10
2018-02-19T08:45:33.422Z,11.80
2018-02-19T08:46:37.869Z,13.07
2018-02-19T08:47:42.350Z,11.95
2018-02-19T08:48:46.817Z,11.95
2018-02-19T08:49:51.265Z,11.45
2018-02-19T08:50:55.781Z,11.30
2018-02-19T08:52:00.225Z,13.05
2018-02-19T08:53:04.557Z,12.68
2018-02-19T08:54:09.009Z,10.90
2018-02-19T08:55:13.459Z,11.38
2018-02-19T08:56:17.916Z,11.70
2018-02-19T08:57:22.402Z,11.60
2018-02-19T08:58:26.873Z,11.20
2018-02-19T08:59:32.123Z,12.50
2018-02-19T09:00:37.605Z,9.95
2018-02-19T09:01:42.041Z,11.25
2018-02-19T09:02:47.345Z,10.50
2018-02-19T09:03:51.810Z,11.35
2018-02-19T09:04:56.267Z,10.30
2018-02-19T09:06:00.723Z,10.70
2018-02-19T09:07:05.926Z,11.63
2018-02-19T09:08:10.378Z,10.02
2018-02-19T09:09:14.933Z,10.30
2018-02-19T09:10:19.444Z,10.50
2018-02-19T09:11:23.881Z,11.12
2018-02-19T09:12:29.098Z,11.07
2018-02-19T09:13:33.555Z,11.20
2018-02-19T09:14:38.030Z,10.45
2018-02-19T09:15:43.250Z,11.82
2018-02-19T09:16:47.747Z,11.32
2018-02-19T09:17:52.194Z,10.25
2018-02-19T09:18:57.425Z,11.85
2018-02-19T09:20:02.678Z,13.13
2018-02-19T09:21:07.137Z,10.98
2018-02-19T09:22:11.581Z,11.48
2018-02-19T09:23:16.026Z,9.98
2018-02-19T09:24:20.482Z,10.50
2018-02-19T09:25:24.943Z,10.05
2018-02-19T09:26:29.399Z,12.52
2018-02-19T09:27:34.826Z,10.82
2018-02-19T09:28:40.213Z,11.55
2018-02-19T09:29:44.657Z,12.07
2018-02-19T09:30:49.125Z,11.65
2018-02-19T09:31:53.584Z,10.50
2018-02-19T09:32:58.034Z,12.20
2018-02-19T09:34:02.489Z,12.85
2018-02-19T09:35:06.967Z,11.60
2018-02-19T09:36:11.524Z,11.23
2018-02-19T09:37:16.245Z,11.40
2018-02-19T09:38:20.688Z,10.82
2018-02-19T09:39:25.909Z,11.38
2018-02-19T09:40:31.215Z,12.07
2018-02-19T09:41:35.669Z,11.75
2018-02-19T09:42:40.120Z,11.20
2018-02-19T09:43:44.650Z,10.88
2018-02-19T09:44:49.095Z,12.48
2018-02-19T09:45:54.299Z,11.07
2018-02-19T09:46:58.769Z,12.05
2018-02-19T09:48:03.244Z,11.82
2018-02-19T09:49:08.251Z,12.32
2018-02-19T09:50:13.010Z,11.52
2018-02-19T09:51:17.465Z,12.40
2018-02-19T09:52:21.940Z,12.98
2018-02-19T09:53:26.419Z,11.60
2018-02-19T09:54:31.632Z,13.52
2018-02-19T09:55:36.437Z,11.93
2018-02-19T09:56:40.873Z,11.85
2018-02-19T09:57:46.121Z,12.82
2018-02-19T09:58:50.575Z,12.30
2018-02-19T09:59:55.029Z,11.85
2018-02-19T10:01:00.074Z,12.40
2018-02-19T10:02:04.518Z,11.57
2018-02-19T10:03:08.992Z,11.18
2018-02-19T10:04:13.486Z,11.68
2018-02-19T10:05:17.926Z,12.20
2018-02-19T10:06:22.381Z,11.43
2018-02-19T10:07:26.858Z,11.90
2018-02-19T10:08:31.346Z,11.55
2018-02-19T10:09:35.799Z,11.23
2018-02-19T10:10:40.253Z,12.05
2018-02-19T10:11:45.469Z,11.85
2018-02-19T10:12:50.697Z,12.57
2018-02-19T10:13:55.177Z,11.80
2018-02-19T10:14:59.635Z,12.88
2018-02-19T10:16:04.843Z,12.65
2018-02-19T10:17:09.286Z,12.50
2018-02-19T10:18:13.745Z,12.00
2018-02-19T10:19:18.230Z,13.32
2018-02-19T10:20:22.692Z,12.55
2018-02-19T10:21:27.139Z,12.60
2018-02-19T10:22:31.582Z,12.77
2018-02-19T10:23:36.036Z,12.18
2018-02-19T10:24:41.278Z,11.68
2018-02-19T10:25:46.492Z,12.27
2018-02-19T10:26:51.709Z,14.10
2018-02-19T10:27:56.155Z,13.77
2018-02-19T10:29:00.614Z,14.25
2018-02-19T10:30:05.095Z,15.38
2018-02-19T10:31:09.538Z,14.87
2018-02-19T10:32:14.003Z,13.02
2018-02-19T10:33:18.533Z,12.50
2018-02-19T10:34:22.953Z,14.32
2018-02-19T10:35:27.432Z,15.45
2018-02-19T10:36:31.886Z,15.35
2018-02-19T10:37:36.337Z,12.23
2018-02-19T10:38:41.567Z,13.82
2018-02-19T10:39:46.790Z,13.18
2018-02-19T10:40:52.026Z,14.10
2018-02-19T10:41:57.237Z,13.13
2018-02-19T10:43:01.683Z,14.07
2018-02-19T10:44:06.138Z,14.35
2018-02-19T10:45:10.599Z,14.18
2018-02-19T10:46:15.070Z,13.65
2018-02-19T10:47:19.526Z,13.95
2018-02-19T10:48:23.986Z,15.05
2018-02-19T10:49:28.434Z,13.30
2018-02-19T10:50:33.650Z,13.43
2018-02-19T10:51:38.158Z,13.30
2018-02-19T10:52:42.511Z,14.65
2018-02-19T10:53:47.117Z,15.30
2018-02-19T10:54:51.588Z,13.05
2018-02-19T10:55:56.031Z,13.85
2018-02-19T10:57:00.335Z,12.60
2018-02-19T10:58:05.362Z,14.00
2018-02-19T10:59:09.827Z,13.80
2018-02-19T11:00:14.077Z,14.95
2018-02-19T11:01:18.530Z,13.40
2018-02-19T11:02:23.011Z,14.80
2018-02-19T11:03:27.450Z,15.45
2018-02-19T11:04:31.906Z,15.13
2018-02-19T11:05:36.358Z,15.02
2018-02-19T11:06:40.814Z,15.05
2018-02-19T11:07:45.287Z,14.35
2018-02-19T11:08:49.758Z,14.93
2018-02-19T11:09:54.962Z,14.90
2018-02-19T11:10:59.502Z,12.80
2018-02-19T11:12:03.951Z,15.65
2018-02-19T11:13:08.409Z,15.75
2018-02-19T11:14:13.633Z,16.52
2018-02-19T11:15:18.073Z,15.05
2018-02-19T11:16:22.535Z,15.70
2018-02-19T11:17:26.977Z,15.10
2018-02-19T11:18:32.226Z,15.90
2018-02-19T11:19:36.684Z,16.80
2018-02-19T11:20:41.132Z,16.08
2018-02-19T11:21:46.345Z,15.07
2018-02-19T11:22:50.793Z,15.75
2018-02-19T11:23:55.259Z,16.10
2018-02-19T11:24:59.698Z,15.70
2018-02-19T11:26:04.924Z,16.62
2018-02-19T11:27:10.130Z,16.10
2018-02-19T11:28:14.561Z,16.65
2018-02-19T11:29:19.806Z,16.15
2018-02-19T11:30:24.253Z,17.58
2018-02-19T11:31:28.361Z,17.08
2018-02-19T11:32:32.818Z,16.95
2018-02-19T11:33:38.032Z,17.17
2018-02-19T11:34:42.498Z,17.55
2018-02-19T11:35:47.033Z,16.45
2018-02-19T11:36:51.477Z,16.00
2018-02-19T11:37:56.694Z,14.98
2018-02-19T11:39:01.930Z,15.82
2018-02-19T11:40:07.166Z,15.25
2018-02-19T11:41:12.382Z,15.65
2018-02-19T11:42:17.606Z,16.12
2018-02-19T11:43:22.052Z,16.35
2018-02-19T11:44:27.426Z,16.70
2018-02-19T11:45:31.902Z,16.92
2018-02-19T11:46:36.354Z,15.55
2018-02-19T11:47:40.805Z,14.63
2018-02-19T11:48:46.018Z,15.35
2018-02-19T11:49:51.238Z,15.30
2018-02-19T11:50:56.491Z,16.17
2018-02-19T11:52:01.717Z,15.60
2018-02-19T11:53:06.922Z,14.45
2018-02-19T11:54:11.369Z,15.20
2018-02-19T11:55:15.818Z,15.20
2018-02-19T11:56:20.302Z,14.80
2018-02-19T11:57:24.755Z,15.23
2018-02-19T11:58:29.217Z,14.93
2018-02-19T11:59:34.417Z,14.30
2018-02-19T12:00:39.724Z,16.40
2018-02-19T12:01:44.182Z,16.40
2018-02-19T12:02:49.384Z,16.40
2018-02-19T12:03:53.834Z,16.00
2018-02-19T12:04:58.278Z,15.35
2018-02-19T12:06:02.729Z,16.10
2018-02-19T12:07:08.172Z,14.70
2018-02-19T12:08:13.382Z,15.45
2018-02-19T12:09:17.825Z,15.48
2018-02-19T12:10:22.282Z,15.40
2018-02-19T12:11:26.740Z,14.55
2018-02-19T12:12:31.206Z,14.73
2018-02-19T12:13:35.656Z,16.52
2018-02-19T12:14:40.870Z,16.33
2018-02-19T12:15:46.097Z,15.45
2018-02-19T12:16:50.546Z,15.20
2018-02-19T12:17:55.023Z,14.45
2018-02-19T12:19:00.229Z,15.55
2018-02-19T12:20:06.191Z,15.95
2018-02-19T12:21:10.647Z,15.63
2018-02-19T12:22:15.101Z,13.88
2018-02-19T12:23:19.579Z,14.55
2018-02-19T12:24:24.027Z,15.75
2018-02-19T12:25:28.473Z,15.65
2018-02-19T12:26:32.734Z,15.60
2018-02-19T12:27:37.195Z,16.45
2018-02-19T12:28:41.707Z,14.00
2018-02-19T12:29:46.318Z,15.15
2018-02-19T12:30:50.873Z,15.20
2018-02-19T12:31:55.305Z,14.45
2018-02-19T12:32:59.762Z,16.02
2018-02-19T12:34:04.230Z,14.43
2018-02-19T12:35:08.491Z,14.90
2018-02-19T12:36:12.926Z,14.98
2018-02-19T12:37:17.404Z,15.32
2018-02-19T12:38:21.846Z,15.85
2018-02-19T12:39:26.187Z,15.63
2018-02-19T12:40:31.216Z,15.93
2018-02-19T12:41:36.434Z,15.45
2018-02-19T12:42:40.874Z,16.42
2018-02-19T12:43:45.320Z,29.23
2018-02-19T12:44:49.794Z,22.50
2018-02-19T12:45:54.246Z,21.08
2018-02-19T12:46:58.688Z,18.08
2018-02-19T12:48:02.947Z,17.02
2018-02-19T12:49:07.398Z,15.60
2018-02-19T12:50:11.867Z,15.18
2018-02-19T12:51:16.314Z,17.15
2018-02-19T12:52:20.770Z,15.88
2018-02-19T12:53:25.205Z,15.20
2018-02-19T12:54:29.665Z,15.50
2018-02-19T12:55:34.903Z,14.52
2018-02-19T12:56:40.119Z,16.05
2018-02-19T12:57:44.565Z,16.95
2018-02-19T12:58:49.024Z,14.65
2018-02-19T12:59:53.471Z,15.25
2018-02-19T13:00:58.734Z,14.48
2018-02-19T13:02:03.193Z,16.42
2018-02-19T13:03:09.198Z,15.18
2018-02-19T13:04:13.642Z,15.27
2018-02-19T13:05:18.091Z,16.95
2018-02-19T13:06:22.566Z,15.38
2018-02-19T13:07:27.013Z,15.70
2018-02-19T13:08:31.457Z,16.58
2018-02-19T13:09:35.906Z,16.95
2018-02-19T13:10:40.350Z,15.77
2018-02-19T13:11:44.827Z,17.25
2018-02-19T13:12:49.277Z,15.00
2018-02-19T13:13:53.722Z,14.25
2018-02-19T13:14:58.174Z,15.45
2018-02-19T13:16:03.061Z,14.18
2018-02-19T13:17:07.546Z,15.18
2018-02-19T13:18:12.005Z,14.55
2018-02-19T13:19:16.586Z,15.40
2018-02-19T13:20:21.036Z,16.83
2018-02-19T13:21:26.253Z,13.80
2018-02-19T13:22:30.722Z,14.90
2018-02-19T13:23:35.190Z,14.90
2018-02-19T13:24:40.406Z,15.18
2018-02-19T13:25:44.854Z,15.50
2018-02-19T13:26:49.344Z,14.85
2018-02-19T13:27:54.587Z,13.88
2018-02-19T13:28:59.038Z,11.85
2018-02-19T13:30:03.489Z,13.30
2018-02-19T13:31:08.705Z,12.52
2018-02-19T13:32:13.162Z,12.55
2018-02-19T13:33:17.634Z,13.07
2018-02-19T13:34:22.849Z,13.20
2018-02-19T13:35:27.306Z,12.57
2018-02-19T13:36:31.761Z,12.95
2018-02-19T13:37:36.221Z,13.23
2018-02-19T13:38:40.690Z,12.65
2018-02-19T13:39:45.201Z,12.55
2018-02-19T13:40:49.641Z,12.73
2018-02-19T13:41:54.940Z,12.37
2018-02-19T13:42:59.374Z,14.02
2018-02-19T13:44:04.429Z,13.10
2018-02-19T13:45:08.691Z,13.38
2018-02-19T13:46:13.142Z,12.88
2018-02-19T13:47:17.597Z,12.30
2018-02-19T13:48:22.054Z,12.82
2018-02-19T13:49:27.308Z,12.68
2018-02-19T13:50:31.756Z,12.30
2018-02-19T13:51:36.198Z,14.35
2018-02-19T13:52:41.418Z,12.52
2018-02-19T13:53:46.645Z,13.23
2018-02-19T13:54:51.110Z,13.88
2018-02-19T13:55:55.579Z,14.07
2018-02-19T13:57:00.815Z,11.70
2018-02-19T13:58:06.027Z,9.05
2018-02-19T13:59:10.490Z,10.85
2018-02-19T14:00:14.990Z,11.88
2018-02-19T14:01:19.542Z,13.38
2018-02-19T14:02:23.994Z,11.98
2018-02-19T14:03:29.389Z,12.35
2018-02-19T14:04:35.341Z,13.62
2018-02-19T14:05:39.828Z,14.40
2018-02-19T14:06:44.279Z,15.68
2018-02-19T14:07:49.060Z,15.65
2018-02-19T14:08:53.495Z,14.45
2018-02-19T14:09:57.941Z,13.75
2018-02-19T14:11:02.423Z,14.10
2018-02-19T14:12:06.693Z,13.65
2018-02-19T14:13:11.162Z,13.77
2018-02-19T14:14:16.450Z,12.07
2018-02-19T14:15:20.887Z,14.90
2018-02-19T14:16:26.143Z,14.07
2018-02-19T14:17:30.585Z,12.80
2018-02-19T14:18:35.037Z,12.18
2018-02-19T14:19:39.486Z,13.25
2018-02-19T14:20:43.935Z,14.55
2018-02-19T14:21:49.571Z,15.77
2018-02-19T14:22:54.007Z,12.65
2018-02-19T14:23:59.222Z,13.93
2018-02-19T14:25:03.677Z,14.43